CheckWX is a tool to help pilots better visualize weather data.  It is not intended as a substitute for an official pre-flight weather briefing.

19:48:22 UTC

DIBK METAR
Bouaké Airport
Côte D’Ivoire
Current

48 mins ago

DIBK 261900Z 18004KT 9999 SCT013 27/24 Q1013 NOSIG
Observed
May-26 @ 19:00 UTC
Wind
  • 180° at 4 KTS
Visibility
10,000+ meters
Flight Rules
VFR
Cloud Levels
  • Scattered at 1,300' AGL
Temperature
27°C / 81°F
Dewpoint
24°C / 75°F
Heat Index
31°C / 87°F
Humidity
84%
Altimeter
29.91" Hg
Pressure
1012.92 hPa
Previous

2 hours ago

DIBK 261800Z 18004KT 9999 SCT013 28/24 Q1013 NOSIG
Observed
May-26 @ 18:00 UTC
Wind
  • 180° at 4 KTS
Visibility
10,000+ meters
Flight Rules
VFR
Cloud Levels
  • Scattered at 1,300' AGL
Temperature
28°C / 82°F
Dewpoint
24°C / 75°F
Heat Index
32°C / 89°F
Humidity
79%
Altimeter
29.91" Hg
Pressure
1012.92 hPa
Previous

3 hours ago

DIBK 261700Z 20004KT 9999 FEW013 29/23 Q1012 NOSIG
Observed
May-26 @ 17:00 UTC
Wind
  • 200° at 4 KTS
Visibility
10,000+ meters
Flight Rules
VFR
Cloud Levels
  • Few at 1,300' AGL
Temperature
29°C / 84°F
Dewpoint
23°C / 73°F
Heat Index
32°C / 90°F
Humidity
70%
Altimeter
29.88" Hg
Pressure
1011.92 hPa